sensor_id;sensor_type;location;lat;lon;timestamp;P1;durP1;ratioP1;P2;durP2;ratioP2
65855;SDS011;52631;42.208;24.656;2022-07-06T00:02:08;9.63;;;4.03;;
65855;SDS011;52631;42.208;24.656;2022-07-06T00:04:33;8.30;;;4.10;;
65855;SDS011;52631;42.208;24.656;2022-07-06T00:06:59;10.43;;;4.05;;
65855;SDS011;52631;42.208;24.656;2022-07-06T00:09:24;8.77;;;4.20;;
65855;SDS011;52631;42.208;24.656;2022-07-06T00:11:50;8.90;;;3.95;;
65855;SDS011;52631;42.208;24.656;2022-07-06T00:14:15;7.32;;;3.80;;
65855;SDS011;52631;42.208;24.656;2022-07-06T00:16:41;8.35;;;4.10;;
65855;SDS011;52631;42.208;24.656;2022-07-06T00:19:06;6.82;;;4.40;;
65855;SDS011;52631;42.208;24.656;2022-07-06T00:21:32;6.55;;;3.85;;
65855;SDS011;52631;42.208;24.656;2022-07-06T00:23:57;5.80;;;3.90;;
65855;SDS011;52631;42.208;24.656;2022-07-06T00:26:23;5.57;;;3.60;;
65855;SDS011;52631;42.208;24.656;2022-07-06T00:28:48;12.55;;;4.38;;
65855;SDS011;52631;42.208;24.656;2022-07-06T00:31:14;10.05;;;3.85;;
65855;SDS011;52631;42.208;24.656;2022-07-06T00:33:39;7.20;;;3.83;;
65855;SDS011;52631;42.208;24.656;2022-07-06T00:36:05;6.22;;;4.13;;
65855;SDS011;52631;42.208;24.656;2022-07-06T00:38:30;8.93;;;3.78;;
65855;SDS011;52631;42.208;24.656;2022-07-06T00:40:56;6.38;;;3.92;;
65855;SDS011;52631;42.208;24.656;2022-07-06T00:43:22;7.63;;;4.20;;
65855;SDS011;52631;42.208;24.656;2022-07-06T00:45:47;6.88;;;4.15;;
65855;SDS011;52631;42.208;24.656;2022-07-06T00:48:13;6.00;;;4.10;;
65855;SDS011;52631;42.208;24.656;2022-07-06T00:50:38;5.50;;;3.80;;
65855;SDS011;52631;42.208;24.656;2022-07-06T00:53:05;7.75;;;4.13;;
65855;SDS011;52631;42.208;24.656;2022-07-06T00:55:33;8.65;;;4.43;;
65855;SDS011;52631;42.208;24.656;2022-07-06T00:58:05;10.23;;;4.70;;
65855;SDS011;52631;42.208;24.656;2022-07-06T01:00:31;6.95;;;3.90;;
65855;SDS011;52631;42.208;24.656;2022-07-06T01:02:57;8.07;;;4.28;;
65855;SDS011;52631;42.208;24.656;2022-07-06T01:05:22;7.45;;;4.22;;
65855;SDS011;52631;42.208;24.656;2022-07-06T01:07:49;7.55;;;4.47;;
65855;SDS011;52631;42.208;24.656;2022-07-06T01:10:16;10.43;;;5.13;;
65855;SDS011;52631;42.208;24.656;2022-07-06T01:12:43;8.88;;;5.03;;
65855;SDS011;52631;42.208;24.656;2022-07-06T01:15:10;11.77;;;5.10;;
65855;SDS011;52631;42.208;24.656;2022-07-06T01:17:40;10.80;;;5.18;;
65855;SDS011;52631;42.208;24.656;2022-07-06T01:20:16;8.40;;;5.03;;
65855;SDS011;52631;42.208;24.656;2022-07-06T01:22:42;10.27;;;5.95;;
65855;SDS011;52631;42.208;24.656;2022-07-06T01:25:08;10.55;;;5.43;;
65855;SDS011;52631;42.208;24.656;2022-07-06T01:27:35;10.23;;;5.32;;
65855;SDS011;52631;42.208;24.656;2022-07-06T01:30:03;12.02;;;5.68;;
65855;SDS011;52631;42.208;24.656;2022-07-06T01:32:40;8.88;;;5.57;;
65855;SDS011;52631;42.208;24.656;2022-07-06T01:35:07;9.77;;;5.35;;
65855;SDS011;52631;42.208;24.656;2022-07-06T01:37:33;11.45;;;5.88;;
65855;SDS011;52631;42.208;24.656;2022-07-06T01:40:00;10.52;;;5.72;;
65855;SDS011;52631;42.208;24.656;2022-07-06T01:42:26;9.98;;;5.28;;
65855;SDS011;52631;42.208;24.656;2022-07-06T01:44:52;7.57;;;5.53;;
65855;SDS011;52631;42.208;24.656;2022-07-06T01:47:17;8.52;;;5.53;;
65855;SDS011;52631;42.208;24.656;2022-07-06T01:49:43;7.32;;;5.45;;
65855;SDS011;52631;42.208;24.656;2022-07-06T01:52:08;8.50;;;5.40;;
65855;SDS011;52631;42.208;24.656;2022-07-06T01:54:34;10.02;;;5.47;;
65855;SDS011;52631;42.208;24.656;2022-07-06T01:56:59;10.27;;;5.28;;
65855;SDS011;52631;42.208;24.656;2022-07-06T01:59:25;8.52;;;5.63;;
65855;SDS011;52631;42.208;24.656;2022-07-06T02:01:50;8.85;;;5.80;;
65855;SDS011;52631;42.208;24.656;2022-07-06T02:04:16;10.07;;;6.38;;
65855;SDS011;52631;42.208;24.656;2022-07-06T02:06:41;14.88;;;7.10;;
65855;SDS011;52631;42.208;24.656;2022-07-06T02:09:07;10.13;;;6.43;;
65855;SDS011;52631;42.208;24.656;2022-07-06T02:11:32;13.23;;;6.88;;
65855;SDS011;52631;42.208;24.656;2022-07-06T02:13:58;12.35;;;6.85;;
65855;SDS011;52631;42.208;24.656;2022-07-06T02:16:23;10.35;;;5.90;;
65855;SDS011;52631;42.208;24.656;2022-07-06T02:18:49;8.10;;;5.90;;
65855;SDS011;52631;42.208;24.656;2022-07-06T02:21:14;8.70;;;5.47;;
65855;SDS011;52631;42.208;24.656;2022-07-06T02:23:39;11.63;;;6.30;;
65855;SDS011;52631;42.208;24.656;2022-07-06T02:26:05;10.57;;;5.95;;
65855;SDS011;52631;42.208;24.656;2022-07-06T02:28:30;9.95;;;5.93;;
65855;SDS011;52631;42.208;24.656;2022-07-06T02:30:56;10.95;;;5.80;;
65855;SDS011;52631;42.208;24.656;2022-07-06T02:33:22;9.13;;;6.07;;
65855;SDS011;52631;42.208;24.656;2022-07-06T02:35:47;9.27;;;5.75;;
65855;SDS011;52631;42.208;24.656;2022-07-06T02:38:13;8.40;;;6.13;;
65855;SDS011;52631;42.208;24.656;2022-07-06T02:40:38;12.50;;;5.95;;
65855;SDS011;52631;42.208;24.656;2022-07-06T02:43:04;11.20;;;5.93;;
65855;SDS011;52631;42.208;24.656;2022-07-06T02:45:30;11.75;;;6.05;;
65855;SDS011;52631;42.208;24.656;2022-07-06T02:47:55;9.07;;;5.78;;
65855;SDS011;52631;42.208;24.656;2022-07-06T02:50:22;12.25;;;6.05;;
65855;SDS011;52631;42.208;24.656;2022-07-06T02:52:48;9.75;;;6.07;;
65855;SDS011;52631;42.208;24.656;2022-07-06T02:55:14;11.13;;;5.82;;
65855;SDS011;52631;42.208;24.656;2022-07-06T02:57:40;10.40;;;6.15;;
65855;SDS011;52631;42.208;24.656;2022-07-06T03:00:05;15.18;;;6.38;;
65855;SDS011;52631;42.208;24.656;2022-07-06T03:02:31;15.02;;;6.10;;
65855;SDS011;52631;42.208;24.656;2022-07-06T03:04:57;11.07;;;6.03;;
65855;SDS011;52631;42.208;24.656;2022-07-06T03:07:22;12.90;;;5.72;;
65855;SDS011;52631;42.208;24.656;2022-07-06T03:09:48;11.23;;;5.95;;
65855;SDS011;52631;42.208;24.656;2022-07-06T03:12:14;10.40;;;6.20;;
65855;SDS011;52631;42.208;24.656;2022-07-06T03:14:41;10.65;;;6.55;;
65855;SDS011;52631;42.208;24.656;2022-07-06T03:17:06;10.77;;;6.55;;
65855;SDS011;52631;42.208;24.656;2022-07-06T03:19:32;19.98;;;7.15;;
65855;SDS011;52631;42.208;24.656;2022-07-06T03:21:57;14.98;;;7.38;;
65855;SDS011;52631;42.208;24.656;2022-07-06T03:24:23;12.70;;;6.97;;
65855;SDS011;52631;42.208;24.656;2022-07-06T03:26:48;10.52;;;6.57;;
65855;SDS011;52631;42.208;24.656;2022-07-06T03:29:14;12.55;;;7.28;;
65855;SDS011;52631;42.208;24.656;2022-07-06T03:31:39;11.27;;;6.95;;
65855;SDS011;52631;42.208;24.656;2022-07-06T03:34:05;14.30;;;6.70;;
65855;SDS011;52631;42.208;24.656;2022-07-06T03:36:31;31.52;;;8.77;;
65855;SDS011;52631;42.208;24.656;2022-07-06T03:38:56;18.00;;;7.78;;
65855;SDS011;52631;42.208;24.656;2022-07-06T03:41:22;13.73;;;8.35;;
65855;SDS011;52631;42.208;24.656;2022-07-06T03:43:47;16.50;;;7.70;;
65855;SDS011;52631;42.208;24.656;2022-07-06T03:46:13;12.57;;;6.65;;
65855;SDS011;52631;42.208;24.656;2022-07-06T03:48:38;13.35;;;7.40;;
65855;SDS011;52631;42.208;24.656;2022-07-06T03:51:04;10.57;;;7.13;;
65855;SDS011;52631;42.208;24.656;2022-07-06T03:53:29;15.43;;;7.45;;
65855;SDS011;52631;42.208;24.656;2022-07-06T03:55:56;13.25;;;7.20;;
65855;SDS011;52631;42.208;24.656;2022-07-06T03:58:40;14.45;;;7.35;;
65855;SDS011;52631;42.208;24.656;2022-07-06T04:01:05;13.32;;;7.10;;
65855;SDS011;52631;42.208;24.656;2022-07-06T04:03:31;11.93;;;7.90;;
65855;SDS011;52631;42.208;24.656;2022-07-06T04:05:56;14.27;;;7.90;;
65855;SDS011;52631;42.208;24.656;2022-07-06T04:08:22;11.70;;;8.00;;
65855;SDS011;52631;42.208;24.656;2022-07-06T04:10:47;14.48;;;8.25;;
65855;SDS011;52631;42.208;24.656;2022-07-06T04:13:12;11.02;;;8.68;;
65855;SDS011;52631;42.208;24.656;2022-07-06T04:15:38;11.50;;;9.18;;
65855;SDS011;52631;42.208;24.656;2022-07-06T04:18:04;13.98;;;9.07;;
65855;SDS011;52631;42.208;24.656;2022-07-06T04:20:32;20.00;;;8.73;;
65855;SDS011;52631;42.208;24.656;2022-07-06T04:22:57;18.63;;;9.73;;
65855;SDS011;52631;42.208;24.656;2022-07-06T04:25:23;12.82;;;7.82;;
65855;SDS011;52631;42.208;24.656;2022-07-06T04:27:49;21.73;;;9.43;;
65855;SDS011;52631;42.208;24.656;2022-07-06T04:30:14;16.55;;;9.25;;
65855;SDS011;52631;42.208;24.656;2022-07-06T04:32:40;18.83;;;9.95;;
65855;SDS011;52631;42.208;24.656;2022-07-06T04:35:05;18.63;;;9.02;;
65855;SDS011;52631;42.208;24.656;2022-07-06T04:37:31;16.75;;;10.13;;
65855;SDS011;52631;42.208;24.656;2022-07-06T04:39:57;17.52;;;10.25;;
65855;SDS011;52631;42.208;24.656;2022-07-06T04:42:23;16.77;;;9.30;;
65855;SDS011;52631;42.208;24.656;2022-07-06T04:44:49;16.13;;;9.57;;
65855;SDS011;52631;42.208;24.656;2022-07-06T04:47:16;13.18;;;9.70;;
65855;SDS011;52631;42.208;24.656;2022-07-06T04:49:42;13.68;;;9.55;;
65855;SDS011;52631;42.208;24.656;2022-07-06T04:52:07;12.20;;;10.00;;
65855;SDS011;52631;42.208;24.656;2022-07-06T04:54:33;15.75;;;10.02;;
65855;SDS011;52631;42.208;24.656;2022-07-06T04:56:58;14.50;;;10.25;;
65855;SDS011;52631;42.208;24.656;2022-07-06T04:59:24;15.35;;;10.90;;
65855;SDS011;52631;42.208;24.656;2022-07-06T05:01:49;12.65;;;10.00;;
65855;SDS011;52631;42.208;24.656;2022-07-06T05:04:15;19.17;;;10.57;;
65855;SDS011;52631;42.208;24.656;2022-07-06T05:06:43;17.77;;;11.32;;
65855;SDS011;52631;42.208;24.656;2022-07-06T05:09:09;14.00;;;10.43;;
65855;SDS011;52631;42.208;24.656;2022-07-06T05:11:34;14.00;;;10.50;;
65855;SDS011;52631;42.208;24.656;2022-07-06T05:14:00;14.63;;;9.98;;
65855;SDS011;52631;42.208;24.656;2022-07-06T05:16:26;19.25;;;10.38;;
65855;SDS011;52631;42.208;24.656;2022-07-06T05:18:51;17.45;;;10.52;;
65855;SDS011;52631;42.208;24.656;2022-07-06T05:21:17;12.88;;;10.43;;
65855;SDS011;52631;42.208;24.656;2022-07-06T05:23:43;14.90;;;10.85;;
65855;SDS011;52631;42.208;24.656;2022-07-06T05:26:08;15.88;;;10.13;;
65855;SDS011;52631;42.208;24.656;2022-07-06T05:28:33;15.52;;;10.98;;
65855;SDS011;52631;42.208;24.656;2022-07-06T05:30:59;16.42;;;9.88;;
65855;SDS011;52631;42.208;24.656;2022-07-06T05:33:25;15.73;;;10.73;;
65855;SDS011;52631;42.208;24.656;2022-07-06T05:35:52;13.32;;;9.63;;
65855;SDS011;52631;42.208;24.656;2022-07-06T05:38:18;12.10;;;9.45;;
65855;SDS011;52631;42.208;24.656;2022-07-06T05:40:44;11.27;;;9.23;;
65855;SDS011;52631;42.208;24.656;2022-07-06T05:43:09;12.18;;;8.80;;
65855;SDS011;52631;42.208;24.656;2022-07-06T05:45:35;11.25;;;9.90;;
65855;SDS011;52631;42.208;24.656;2022-07-06T05:48:00;12.38;;;9.50;;
65855;SDS011;52631;42.208;24.656;2022-07-06T05:50:44;11.88;;;9.10;;
65855;SDS011;52631;42.208;24.656;2022-07-06T05:53:10;14.70;;;9.93;;
65855;SDS011;52631;42.208;24.656;2022-07-06T05:55:36;12.68;;;9.32;;
65855;SDS011;52631;42.208;24.656;2022-07-06T05:58:01;13.02;;;8.70;;
65855;SDS011;52631;42.208;24.656;2022-07-06T06:00:27;12.23;;;9.07;;
65855;SDS011;52631;42.208;24.656;2022-07-06T06:02:52;15.65;;;9.20;;
65855;SDS011;52631;42.208;24.656;2022-07-06T06:05:18;11.27;;;9.63;;
65855;SDS011;52631;42.208;24.656;2022-07-06T06:07:45;9.85;;;8.35;;
65855;SDS011;52631;42.208;24.656;2022-07-06T06:10:15;12.38;;;9.52;;
65855;SDS011;52631;42.208;24.656;2022-07-06T06:12:41;10.70;;;9.60;;
65855;SDS011;52631;42.208;24.656;2022-07-06T06:15:07;12.18;;;10.88;;
65855;SDS011;52631;42.208;24.656;2022-07-06T06:17:33;14.57;;;10.32;;
65855;SDS011;52631;42.208;24.656;2022-07-06T06:19:59;12.75;;;9.82;;
65855;SDS011;52631;42.208;24.656;2022-07-06T06:22:24;12.10;;;10.00;;
65855;SDS011;52631;42.208;24.656;2022-07-06T06:24:50;12.73;;;9.30;;
65855;SDS011;52631;42.208;24.656;2022-07-06T06:27:16;10.32;;;8.95;;
65855;SDS011;52631;42.208;24.656;2022-07-06T06:29:41;11.98;;;8.63;;
65855;SDS011;52631;42.208;24.656;2022-07-06T06:32:09;12.55;;;8.82;;
65855;SDS011;52631;42.208;24.656;2022-07-06T06:34:38;10.23;;;8.73;;
65855;SDS011;52631;42.208;24.656;2022-07-06T06:37:05;12.80;;;8.88;;
65855;SDS011;52631;42.208;24.656;2022-07-06T06:39:30;10.90;;;9.25;;
65855;SDS011;52631;42.208;24.656;2022-07-06T06:41:56;10.63;;;9.55;;
65855;SDS011;52631;42.208;24.656;2022-07-06T06:44:21;11.07;;;9.40;;
65855;SDS011;52631;42.208;24.656;2022-07-06T06:46:50;14.00;;;9.55;;
65855;SDS011;52631;42.208;24.656;2022-07-06T06:49:17;10.75;;;9.35;;
65855;SDS011;52631;42.208;24.656;2022-07-06T06:51:43;13.00;;;10.63;;
65855;SDS011;52631;42.208;24.656;2022-07-06T06:54:08;16.40;;;10.45;;
65855;SDS011;52631;42.208;24.656;2022-07-06T06:56:34;12.75;;;9.98;;
65855;SDS011;52631;42.208;24.656;2022-07-06T06:58:59;14.88;;;10.68;;
65855;SDS011;52631;42.208;24.656;2022-07-06T07:01:26;22.33;;;10.65;;
65855;SDS011;52631;42.208;24.656;2022-07-06T07:03:52;13.98;;;10.73;;
65855;SDS011;52631;42.208;24.656;2022-07-06T07:06:20;14.60;;;11.07;;
65855;SDS011;52631;42.208;24.656;2022-07-06T07:08:45;14.55;;;10.48;;
65855;SDS011;52631;42.208;24.656;2022-07-06T07:11:11;11.45;;;9.95;;
65855;SDS011;52631;42.208;24.656;2022-07-06T07:13:36;14.65;;;10.93;;
65855;SDS011;52631;42.208;24.656;2022-07-06T07:16:02;12.77;;;10.73;;
65855;SDS011;52631;42.208;24.656;2022-07-06T07:18:27;20.67;;;11.50;;
65855;SDS011;52631;42.208;24.656;2022-07-06T07:20:53;17.95;;;13.10;;
65855;SDS011;52631;42.208;24.656;2022-07-06T07:23:18;16.75;;;11.10;;
65855;SDS011;52631;42.208;24.656;2022-07-06T07:25:43;15.52;;;11.73;;
65855;SDS011;52631;42.208;24.656;2022-07-06T07:28:09;18.30;;;11.95;;
65855;SDS011;52631;42.208;24.656;2022-07-06T07:30:35;12.57;;;11.25;;
65855;SDS011;52631;42.208;24.656;2022-07-06T07:33:00;15.82;;;11.25;;
65855;SDS011;52631;42.208;24.656;2022-07-06T07:35:26;16.15;;;12.70;;
65855;SDS011;52631;42.208;24.656;2022-07-06T07:37:52;15.60;;;12.60;;
65855;SDS011;52631;42.208;24.656;2022-07-06T07:40:18;15.25;;;12.38;;
65855;SDS011;52631;42.208;24.656;2022-07-06T07:42:43;19.00;;;13.00;;
65855;SDS011;52631;42.208;24.656;2022-07-06T07:45:10;15.45;;;12.50;;
65855;SDS011;52631;42.208;24.656;2022-07-06T07:47:36;16.23;;;12.90;;
65855;SDS011;52631;42.208;24.656;2022-07-06T07:50:02;18.55;;;12.63;;
65855;SDS011;52631;42.208;24.656;2022-07-06T07:52:27;14.48;;;12.32;;
65855;SDS011;52631;42.208;24.656;2022-07-06T07:54:53;18.60;;;12.13;;
65855;SDS011;52631;42.208;24.656;2022-07-06T07:57:18;13.70;;;11.57;;
65855;SDS011;52631;42.208;24.656;2022-07-06T07:59:44;21.83;;;12.10;;
65855;SDS011;52631;42.208;24.656;2022-07-06T08:02:09;13.85;;;11.40;;
65855;SDS011;52631;42.208;24.656;2022-07-06T08:04:35;13.40;;;12.00;;
65855;SDS011;52631;42.208;24.656;2022-07-06T08:07:00;12.27;;;10.63;;
65855;SDS011;52631;42.208;24.656;2022-07-06T08:09:26;16.45;;;11.50;;
65855;SDS011;52631;42.208;24.656;2022-07-06T08:11:51;13.85;;;11.13;;
65855;SDS011;52631;42.208;24.656;2022-07-06T08:14:17;22.08;;;11.95;;
65855;SDS011;52631;42.208;24.656;2022-07-06T08:16:42;13.50;;;10.75;;
65855;SDS011;52631;42.208;24.656;2022-07-06T08:19:08;12.15;;;10.80;;
65855;SDS011;52631;42.208;24.656;2022-07-06T08:21:34;14.25;;;10.85;;
65855;SDS011;52631;42.208;24.656;2022-07-06T08:24:00;12.73;;;10.98;;
65855;SDS011;52631;42.208;24.656;2022-07-06T08:26:26;11.60;;;10.40;;
65855;SDS011;52631;42.208;24.656;2022-07-06T08:28:53;13.23;;;10.95;;
65855;SDS011;52631;42.208;24.656;2022-07-06T08:31:19;14.27;;;11.35;;
65855;SDS011;52631;42.208;24.656;2022-07-06T08:33:44;11.52;;;10.13;;
65855;SDS011;52631;42.208;24.656;2022-07-06T08:36:10;14.27;;;10.95;;
65855;SDS011;52631;42.208;24.656;2022-07-06T08:38:36;13.65;;;10.73;;
65855;SDS011;52631;42.208;24.656;2022-07-06T08:41:01;12.45;;;10.43;;
65855;SDS011;52631;42.208;24.656;2022-07-06T08:43:27;13.93;;;11.07;;
65855;SDS011;52631;42.208;24.656;2022-07-06T08:45:53;14.57;;;11.00;;
65855;SDS011;52631;42.208;24.656;2022-07-06T08:48:19;14.65;;;11.10;;
65855;SDS011;52631;42.208;24.656;2022-07-06T08:50:47;12.18;;;10.57;;
65855;SDS011;52631;42.208;24.656;2022-07-06T08:53:14;14.55;;;11.05;;
65855;SDS011;52631;42.208;24.656;2022-07-06T08:55:42;12.15;;;10.85;;
65855;SDS011;52631;42.208;24.656;2022-07-06T08:58:07;16.45;;;12.13;;
65855;SDS011;52631;42.208;24.656;2022-07-06T09:00:33;15.18;;;11.60;;
65855;SDS011;52631;42.208;24.656;2022-07-06T09:02:59;15.70;;;11.82;;
65855;SDS011;52631;42.208;24.656;2022-07-06T09:05:24;14.13;;;11.18;;
65855;SDS011;52631;42.208;24.656;2022-07-06T09:07:50;15.32;;;11.63;;
65855;SDS011;52631;42.208;24.656;2022-07-06T09:10:17;14.88;;;11.60;;
65855;SDS011;52631;42.208;24.656;2022-07-06T09:12:43;19.02;;;11.38;;
65855;SDS011;52631;42.208;24.656;2022-07-06T09:15:09;14.60;;;11.73;;
65855;SDS011;52631;42.208;24.656;2022-07-06T09:17:37;15.65;;;11.15;;
65855;SDS011;52631;42.208;24.656;2022-07-06T09:20:06;14.25;;;11.45;;
65855;SDS011;52631;42.208;24.656;2022-07-06T09:22:35;12.20;;;10.82;;
65855;SDS011;52631;42.208;24.656;2022-07-06T09:25:11;13.98;;;11.23;;
65855;SDS011;52631;42.208;24.656;2022-07-06T09:27:38;14.65;;;11.95;;
65855;SDS011;52631;42.208;24.656;2022-07-06T09:30:10;14.98;;;11.43;;
65855;SDS011;52631;42.208;24.656;2022-07-06T09:32:43;12.80;;;10.98;;
65855;SDS011;52631;42.208;24.656;2022-07-06T09:40:38;12.88;;;10.23;;
65855;SDS011;52631;42.208;24.656;2022-07-06T09:43:25;13.73;;;9.60;;
65855;SDS011;52631;42.208;24.656;2022-07-06T09:45:54;15.48;;;9.43;;
65855;SDS011;52631;42.208;24.656;2022-07-06T09:48:29;16.80;;;10.13;;
65855;SDS011;52631;42.208;24.656;2022-07-06T09:50:56;13.25;;;10.60;;
65855;SDS011;52631;42.208;24.656;2022-07-06T09:53:27;13.20;;;9.38;;
65855;SDS011;52631;42.208;24.656;2022-07-06T09:55:54;14.50;;;9.63;;
65855;SDS011;52631;42.208;24.656;2022-07-06T09:58:20;16.73;;;10.40;;
65855;SDS011;52631;42.208;24.656;2022-07-06T10:00:47;14.43;;;10.90;;
65855;SDS011;52631;42.208;24.656;2022-07-06T10:03:13;13.75;;;10.57;;
65855;SDS011;52631;42.208;24.656;2022-07-06T10:05:42;11.48;;;9.93;;
65855;SDS011;52631;42.208;24.656;2022-07-06T10:08:11;14.18;;;8.73;;
65855;SDS011;52631;42.208;24.656;2022-07-06T10:10:37;14.43;;;9.90;;
65855;SDS011;52631;42.208;24.656;2022-07-06T10:13:03;15.77;;;10.07;;
65855;SDS011;52631;42.208;24.656;2022-07-06T10:15:33;12.75;;;9.57;;
65855;SDS011;52631;42.208;24.656;2022-07-06T10:18:00;24.63;;;11.57;;
65855;SDS011;52631;42.208;24.656;2022-07-06T10:20:31;11.52;;;8.98;;
65855;SDS011;52631;42.208;24.656;2022-07-06T10:22:59;13.77;;;9.23;;
65855;SDS011;52631;42.208;24.656;2022-07-06T10:25:26;12.30;;;9.20;;
65855;SDS011;52631;42.208;24.656;2022-07-06T10:27:52;12.75;;;9.57;;
65855;SDS011;52631;42.208;24.656;2022-07-06T10:30:18;12.23;;;9.95;;
65855;SDS011;52631;42.208;24.656;2022-07-06T10:32:44;10.23;;;8.70;;
65855;SDS011;52631;42.208;24.656;2022-07-06T10:35:14;12.13;;;9.25;;
65855;SDS011;52631;42.208;24.656;2022-07-06T10:37:41;12.07;;;9.30;;
65855;SDS011;52631;42.208;24.656;2022-07-06T10:40:06;13.02;;;9.32;;
65855;SDS011;52631;42.208;24.656;2022-07-06T10:43:01;13.25;;;9.57;;
65855;SDS011;52631;42.208;24.656;2022-07-06T10:53:12;10.45;;;8.43;;
65855;SDS011;52631;42.208;24.656;2022-07-06T10:55:40;9.05;;;7.53;;
65855;SDS011;52631;42.208;24.656;2022-07-06T10:58:06;8.80;;;6.70;;
65855;SDS011;52631;42.208;24.656;2022-07-06T11:03:29;10.45;;;7.68;;
65855;SDS011;52631;42.208;24.656;2022-07-06T11:06:08;13.90;;;7.65;;
65855;SDS011;52631;42.208;24.656;2022-07-06T11:11:12;10.63;;;7.32;;
65855;SDS011;52631;42.208;24.656;2022-07-06T11:14:27;10.40;;;7.72;;
65855;SDS011;52631;42.208;24.656;2022-07-06T11:16:31;9.13;;;7.95;;
65855;SDS011;52631;42.208;24.656;2022-07-06T11:19:10;10.88;;;8.00;;
65855;SDS011;52631;42.208;24.656;2022-07-06T11:24:21;10.05;;;8.45;;
65855;SDS011;52631;42.208;24.656;2022-07-06T11:26:48;12.37;;;8.23;;
65855;SDS011;52631;42.208;24.656;2022-07-06T11:29:16;9.80;;;8.10;;
65855;SDS011;52631;42.208;24.656;2022-07-06T11:31:45;9.68;;;8.68;;
65855;SDS011;52631;42.208;24.656;2022-07-06T11:34:13;11.75;;;8.45;;
65855;SDS011;52631;42.208;24.656;2022-07-06T11:36:43;12.35;;;8.80;;
65855;SDS011;52631;42.208;24.656;2022-07-06T11:39:08;9.95;;;8.45;;
65855;SDS011;52631;42.208;24.656;2022-07-06T11:41:34;11.10;;;8.85;;
65855;SDS011;52631;42.208;24.656;2022-07-06T11:44:01;10.80;;;9.27;;
65855;SDS011;52631;42.208;24.656;2022-07-06T11:46:27;13.38;;;8.00;;
65855;SDS011;52631;42.208;24.656;2022-07-06T11:49:07;11.13;;;8.73;;
65855;SDS011;52631;42.208;24.656;2022-07-06T11:51:34;13.38;;;8.60;;
65855;SDS011;52631;42.208;24.656;2022-07-06T11:54:07;10.70;;;8.95;;
65855;SDS011;52631;42.208;24.656;2022-07-06T11:56:58;9.75;;;7.68;;
65855;SDS011;52631;42.208;24.656;2022-07-06T11:59:25;9.75;;;8.25;;
65855;SDS011;52631;42.208;24.656;2022-07-06T12:02:04;14.27;;;8.90;;
65855;SDS011;52631;42.208;24.656;2022-07-06T12:04:30;10.10;;;8.60;;
65855;SDS011;52631;42.208;24.656;2022-07-06T12:07:02;11.38;;;8.65;;
65855;SDS011;52631;42.208;24.656;2022-07-06T12:09:36;10.55;;;8.05;;
65855;SDS011;52631;42.208;24.656;2022-07-06T12:12:03;11.93;;;8.65;;
65855;SDS011;52631;42.208;24.656;2022-07-06T12:14:29;12.13;;;8.35;;
65855;SDS011;52631;42.208;24.656;2022-07-06T12:16:56;11.02;;;8.85;;
65855;SDS011;52631;42.208;24.656;2022-07-06T12:19:22;10.30;;;8.52;;
65855;SDS011;52631;42.208;24.656;2022-07-06T12:21:51;11.95;;;9.40;;
65855;SDS011;52631;42.208;24.656;2022-07-06T12:24:21;12.50;;;8.70;;
65855;SDS011;52631;42.208;24.656;2022-07-06T12:26:49;23.02;;;10.15;;
65855;SDS011;52631;42.208;24.656;2022-07-06T12:29:16;17.20;;;9.30;;
65855;SDS011;52631;42.208;24.656;2022-07-06T12:31:49;12.98;;;9.70;;
65855;SDS011;52631;42.208;24.656;2022-07-06T12:34:17;13.30;;;10.32;;
65855;SDS011;52631;42.208;24.656;2022-07-06T12:36:47;12.88;;;10.18;;
65855;SDS011;52631;42.208;24.656;2022-07-06T12:39:14;13.85;;;11.30;;
65855;SDS011;52631;42.208;24.656;2022-07-06T12:41:48;14.32;;;10.57;;
65855;SDS011;52631;42.208;24.656;2022-07-06T12:44:15;12.55;;;10.27;;
65855;SDS011;52631;42.208;24.656;2022-07-06T12:46:43;12.75;;;10.93;;
65855;SDS011;52631;42.208;24.656;2022-07-06T12:49:14;13.75;;;12.10;;
65855;SDS011;52631;42.208;24.656;2022-07-06T12:54:16;13.73;;;10.55;;
65855;SDS011;52631;42.208;24.656;2022-07-06T12:57:02;14.70;;;10.82;;
65855;SDS011;52631;42.208;24.656;2022-07-06T12:59:56;13.35;;;10.80;;
65855;SDS011;52631;42.208;24.656;2022-07-06T13:02:23;14.75;;;11.25;;
65855;SDS011;52631;42.208;24.656;2022-07-06T13:04:57;16.15;;;11.43;;
65855;SDS011;52631;42.208;24.656;2022-07-06T13:07:24;14.10;;;10.75;;
65855;SDS011;52631;42.208;24.656;2022-07-06T13:09:50;13.65;;;10.88;;
65855;SDS011;52631;42.208;24.656;2022-07-06T13:12:15;12.88;;;9.68;;
65855;SDS011;52631;42.208;24.656;2022-07-06T13:14:41;12.52;;;9.88;;
65855;SDS011;52631;42.208;24.656;2022-07-06T13:17:06;12.40;;;9.70;;
65855;SDS011;52631;42.208;24.656;2022-07-06T13:19:32;10.80;;;9.35;;
65855;SDS011;52631;42.208;24.656;2022-07-06T13:21:58;13.02;;;9.82;;
65855;SDS011;52631;42.208;24.656;2022-07-06T13:24:23;13.90;;;10.00;;
65855;SDS011;52631;42.208;24.656;2022-07-06T13:26:49;10.65;;;9.35;;
65855;SDS011;52631;42.208;24.656;2022-07-06T13:29:14;11.07;;;9.75;;
65855;SDS011;52631;42.208;24.656;2022-07-06T13:31:40;13.30;;;10.00;;
65855;SDS011;52631;42.208;24.656;2022-07-06T13:34:06;13.73;;;9.80;;
65855;SDS011;52631;42.208;24.656;2022-07-06T13:36:32;14.75;;;9.40;;
65855;SDS011;52631;42.208;24.656;2022-07-06T13:38:58;12.48;;;9.95;;
65855;SDS011;52631;42.208;24.656;2022-07-06T13:41:24;12.60;;;9.18;;
65855;SDS011;52631;42.208;24.656;2022-07-06T13:43:49;12.52;;;9.38;;
65855;SDS011;52631;42.208;24.656;2022-07-06T13:46:15;11.82;;;9.77;;
65855;SDS011;52631;42.208;24.656;2022-07-06T13:48:41;11.60;;;9.00;;
65855;SDS011;52631;42.208;24.656;2022-07-06T13:51:07;11.68;;;9.23;;
65855;SDS011;52631;42.208;24.656;2022-07-06T13:53:33;11.48;;;8.93;;
65855;SDS011;52631;42.208;24.656;2022-07-06T13:55:58;11.40;;;9.10;;
65855;SDS011;52631;42.208;24.656;2022-07-06T13:58:24;12.52;;;8.95;;
65855;SDS011;52631;42.208;24.656;2022-07-06T14:00:49;12.77;;;9.57;;
65855;SDS011;52631;42.208;24.656;2022-07-06T14:03:15;11.85;;;10.32;;
65855;SDS011;52631;42.208;24.656;2022-07-06T14:05:40;13.32;;;9.32;;
65855;SDS011;52631;42.208;24.656;2022-07-06T14:08:06;12.27;;;9.80;;
65855;SDS011;52631;42.208;24.656;2022-07-06T14:10:31;14.80;;;9.73;;
65855;SDS011;52631;42.208;24.656;2022-07-06T14:12:56;13.32;;;10.25;;
65855;SDS011;52631;42.208;24.656;2022-07-06T14:15:22;14.68;;;10.55;;
65855;SDS011;52631;42.208;24.656;2022-07-06T14:17:47;12.70;;;9.77;;
65855;SDS011;52631;42.208;24.656;2022-07-06T14:20:13;11.48;;;9.60;;
65855;SDS011;52631;42.208;24.656;2022-07-06T14:22:39;14.85;;;10.35;;
65855;SDS011;52631;42.208;24.656;2022-07-06T14:25:05;13.05;;;10.20;;
65855;SDS011;52631;42.208;24.656;2022-07-06T14:27:32;14.02;;;9.73;;
65855;SDS011;52631;42.208;24.656;2022-07-06T14:30:01;16.25;;;10.02;;
65855;SDS011;52631;42.208;24.656;2022-07-06T14:32:26;12.13;;;9.57;;
65855;SDS011;52631;42.208;24.656;2022-07-06T14:34:52;11.55;;;9.52;;
65855;SDS011;52631;42.208;24.656;2022-07-06T14:37:17;11.77;;;9.50;;
65855;SDS011;52631;42.208;24.656;2022-07-06T14:39:43;11.63;;;9.07;;
65855;SDS011;52631;42.208;24.656;2022-07-06T14:42:11;10.57;;;8.43;;